Time;durP1;ratioP1;P1;durP2;ratioP2;P2;SDS_P1;SDS_P2;PMS_P1;PMS_P2;Temp;Humidity;BMP_temperature;BMP_pressure;BME280_temperature;BME280_humidity;BME280_pressure;Samples;Min_cycle;Max_cycle;Signal;HPM_P1;HPM_P2
2022/08/01 00:02:21;;;;;;;7.10;4.68;;;17.90;99.90;;;;;;5052372;28;20453;-66
2022/08/01 00:04:47;;;;;;;9.77;5.13;;;17.90;99.90;;;;;;5067854;28;20111;-67
2022/08/01 00:07:13;;;;;;;9.70;5.03;;;17.90;99.90;;;;;;5074945;28;20036;-67
2022/08/01 00:09:38;;;;;;;9.00;5.43;;;17.90;99.90;;;;;;5058393;28;20468;-65
2022/08/01 00:12:04;;;;;;;11.27;4.78;;;17.90;99.90;;;;;;5037968;28;20051;-67
2022/08/01 00:14:30;;;;;;;8.05;5.15;;;17.90;99.90;;;;;;5038183;28;20063;-67
2022/08/01 00:16:56;;;;;;;7.38;4.93;;;17.90;99.90;;;;;;5052154;28;20410;-67
2022/08/01 00:19:21;;;;;;;9.85;5.43;;;17.90;99.90;;;;;;5044085;28;20056;-67
2022/08/01 00:21:47;;;;;;;11.15;4.80;;;17.90;99.90;;;;;;5075722;28;20048;-67
2022/08/01 00:24:13;;;;;;;8.02;4.70;;;17.90;99.90;;;;;;5058222;28;20037;-67
2022/08/01 00:26:38;;;;;;;7.47;4.70;;;17.90;99.90;;;;;;5055910;28;20048;-66
2022/08/01 00:29:04;;;;;;;6.55;4.60;;;18.00;99.90;;;;;;5055845;28;20402;-66
2022/08/01 00:31:30;;;;;;;8.43;4.88;;;18.00;99.90;;;;;;5029989;28;20059;-67
2022/08/01 00:33:55;;;;;;;8.63;4.78;;;17.90;99.90;;;;;;5057345;28;20049;-67
2022/08/01 00:36:21;;;;;;;12.50;5.13;;;17.90;99.90;;;;;;5074937;28;20033;-67
2022/08/01 00:38:47;;;;;;;10.85;5.30;;;17.90;99.90;;;;;;5070874;28;20502;-67
2022/08/01 00:41:12;;;;;;;10.63;5.90;;;17.90;99.90;;;;;;5055181;28;20505;-65
2022/08/01 00:43:38;;;;;;;11.75;5.50;;;17.90;99.90;;;;;;5055388;28;20037;-66
2022/08/01 00:46:07;;;;;;;10.68;5.82;;;17.90;99.90;;;;;;5020921;28;20045;-67
2022/08/01 00:48:33;;;;;;;12.07;6.28;;;17.90;99.90;;;;;;5055633;28;20095;-66
2022/08/01 00:50:59;;;;;;;15.55;6.40;;;17.80;99.90;;;;;;5070826;28;20044;-66
2022/08/01 00:53:25;;;;;;;9.48;6.15;;;17.90;99.90;;;;;;5075033;28;20037;-66
2022/08/01 00:55:50;;;;;;;13.15;6.43;;;17.80;99.90;;;;;;5075373;28;20044;-66
2022/08/01 00:58:19;;;;;;;10.90;6.07;;;17.80;99.90;;;;;;5064674;28;20041;-66
2022/08/01 01:00:45;;;;;;;17.25;5.78;;;17.80;99.90;;;;;;5037200;28;20403;-67
2022/08/01 01:03:11;;;;;;;9.20;5.70;;;17.80;99.90;;;;;;5054830;28;20040;-67
2022/08/01 01:06:11;;;;;;;11.43;4.78;;;17.80;99.90;;;;;;5065820;28;20252;-66
2022/08/01 01:09:16;;;;;;;9.68;4.00;;;17.80;99.90;;;;;;5049801;28;20057;-66
2022/08/01 01:12:02;;;;;;;7.20;3.90;;;17.80;99.90;;;;;;5054732;28;20041;-66
2022/08/01 01:14:56;;;;;;;7.07;4.10;;;17.80;99.90;;;;;;5050482;28;20091;-67
2022/08/01 01:17:28;;;;;;;7.75;3.63;;;17.80;99.90;;;;;;5040068;28;20055;-66
2022/08/01 01:19:59;;;;;;;6.57;2.75;;;17.70;99.90;;;;;;5055019;28;20075;-66
2022/08/01 01:22:52;;;;;;;11.73;4.18;;;17.70;99.90;;;;;;5056923;28;20064;-66
2022/08/01 01:25:21;;;;;;;9.15;3.25;;;17.60;99.90;;;;;;5056488;28;20048;-66
2022/08/01 01:28:02;;;;;;;7.60;3.53;;;17.60;99.90;;;;;;5054797;28;20071;-67
2022/08/01 01:30:30;;;;;;;9.45;4.28;;;17.60;99.90;;;;;;5042748;28;20124;-65
2022/08/01 01:33:01;;;;;;;7.35;3.53;;;17.50;99.90;;;;;;5055170;28;20148;-66
2022/08/01 01:35:32;;;;;;;9.02;3.58;;;17.50;99.90;;;;;;5040676;28;20490;-66
2022/08/01 01:38:07;;;;;;;11.13;4.40;;;17.50;99.90;;;;;;5038296;28;20052;-66
2022/08/01 01:40:34;;;;;;;13.45;3.50;;;17.50;99.90;;;;;;5031728;28;20068;-65
2022/08/01 01:43:00;;;;;;;10.98;3.83;;;17.50;99.90;;;;;;5051727;28;20106;-65
2022/08/01 01:45:26;;;;;;;9.43;3.47;;;17.40;99.90;;;;;;5050879;28;20040;-65
2022/08/01 01:47:54;;;;;;;11.10;3.38;;;17.40;99.90;;;;;;5053989;28;20041;-67
2022/08/01 01:50:24;;;;;;;9.60;3.70;;;17.40;99.90;;;;;;5032595;28;20049;-65
2022/08/01 01:52:50;;;;;;;10.15;3.03;;;17.40;99.90;;;;;;5023009;28;20064;-65
2022/08/01 01:55:18;;;;;;;14.15;3.50;;;17.30;99.90;;;;;;5033496;28;20491;-65
2022/08/01 01:57:45;;;;;;;;;;;17.30;99.90;;;;;;5016995;28;20041;-67
2022/08/01 02:00:12;;;;;;;12.93;3.50;;;17.30;99.90;;;;;;5033765;28;19971;-65
2022/08/01 02:02:38;;;;;;;11.18;2.90;;;17.30;99.90;;;;;;5047491;28;20124;-65
2022/08/01 02:05:07;;;;;;;12.73;3.47;;;17.20;99.90;;;;;;5052140;28;20491;-64
2022/08/01 02:07:34;;;;;;;11.00;3.45;;;17.20;99.90;;;;;;5031585;28;20381;-65
2022/08/01 02:10:01;;;;;;;8.52;3.28;;;17.20;99.90;;;;;;5033620;28;20052;-64
2022/08/01 02:12:27;;;;;;;9.10;2.95;;;17.20;99.90;;;;;;5033488;28;20045;-65
2022/08/01 02:14:54;;;;;;;12.60;2.92;;;17.20;99.90;;;;;;5034392;28;20041;-66
2022/08/01 02:17:23;;;;;;;11.85;2.67;;;17.20;99.90;;;;;;5052818;28;20059;-66
2022/08/01 02:19:50;;;;;;;12.63;2.92;;;17.20;99.90;;;;;;5038322;28;20103;-64
2022/08/01 02:22:29;;;;;;;14.77;3.30;;;17.20;99.90;;;;;;5034973;28;20186;-65
2022/08/01 02:25:18;;;;;;;7.82;2.90;;;17.20;99.90;;;;;;5053007;28;20041;-65
2022/08/01 02:27:51;;;;;;;10.90;2.90;;;17.20;99.90;;;;;;5045818;28;20454;-66
2022/08/01 02:30:17;;;;;;;9.48;2.83;;;17.20;99.90;;;;;;5033419;28;20042;-66
2022/08/01 02:32:46;;;;;;;21.48;3.85;;;17.10;99.90;;;;;;5035990;28;20036;-66
2022/08/01 02:35:17;;;;;;;14.32;3.42;;;17.20;99.90;;;;;;5047726;28;20118;-66
2022/08/01 02:37:50;;;;;;;19.35;4.10;;;17.20;99.90;;;;;;5070841;28;20056;-66
2022/08/01 02:40:18;;;;;;;14.32;3.50;;;17.20;99.90;;;;;;5055297;28;20032;-65
2022/08/01 02:42:49;;;;;;;22.05;4.10;;;17.10;99.90;;;;;;5073209;28;20052;-65
2022/08/01 02:45:18;;;;;;;17.30;4.50;;;17.30;99.90;;;;;;5057110;28;20049;-65
2022/08/01 02:47:45;;;;;;;15.23;4.15;;;17.20;99.90;;;;;;5053011;28;20049;-65
2022/08/01 02:50:13;;;;;;;18.63;4.50;;;17.10;99.90;;;;;;5052691;28;20041;-64
2022/08/01 02:52:44;;;;;;;28.65;5.47;;;17.10;99.90;;;;;;5040635;28;20313;-64
2022/08/01 02:55:13;;;;;;;19.05;5.15;;;17.10;99.90;;;;;;5035528;28;20154;-65
2022/08/01 02:57:40;;;;;;;8.98;3.78;;;17.10;99.90;;;;;;5053003;28;20410;-65
2022/08/01 03:00:06;;;;;;;21.08;4.75;;;17.10;99.90;;;;;;5048814;28;20416;-65
2022/08/01 03:02:36;;;;;;;13.45;4.15;;;17.10;99.90;;;;;;5052906;28;20041;-67
2022/08/01 03:05:03;;;;;;;19.45;4.43;;;17.00;99.90;;;;;;5053050;28;20049;-65
2022/08/01 03:07:29;;;;;;;12.10;3.85;;;17.00;99.90;;;;;;5064837;28;20438;-66
2022/08/01 03:09:57;;;;;;;13.27;3.80;;;16.90;99.90;;;;;;5061466;28;20442;-66
2022/08/01 03:12:27;;;;;;;21.60;4.78;;;16.90;99.90;;;;;;5035351;28;20037;-67
2022/08/01 03:14:56;;;;;;;16.33;4.75;;;16.90;99.90;;;;;;5052928;28;20059;-67
2022/08/01 03:17:24;;;;;;;18.83;5.38;;;16.80;99.90;;;;;;5069629;28;20479;-65
2022/08/01 03:19:52;;;;;;;14.57;5.05;;;16.80;99.90;;;;;;5055972;28;20099;-68
2022/08/01 03:22:20;;;;;;;17.30;4.25;;;16.70;99.90;;;;;;5043392;28;20110;-65
2022/08/01 03:24:55;;;;;;;14.40;4.18;;;16.80;99.90;;;;;;5071780;28;20106;-69
2022/08/01 03:27:24;;;;;;;13.55;3.83;;;16.80;99.90;;;;;;5072337;28;20041;-67
2022/08/01 03:29:54;;;;;;;13.75;4.10;;;16.70;99.90;;;;;;5068690;28;20510;-66
2022/08/01 03:32:21;;;;;;;15.55;4.20;;;16.70;99.90;;;;;;5052375;28;20088;-66
2022/08/01 03:34:46;;;;;;;18.42;4.22;;;16.70;99.90;;;;;;5052019;28;20049;-65
2022/08/01 03:37:24;;;;;;;15.25;4.25;;;16.60;99.90;;;;;;5053979;28;20067;-66
2022/08/01 03:39:58;;;;;;;16.38;4.78;;;16.70;99.90;;;;;;5052447;28;20048;-66
2022/08/01 03:42:36;;;;;;;22.65;4.22;;;16.70;99.90;;;;;;5052144;28;20111;-64
2022/08/01 03:45:12;;;;;;;14.43;4.00;;;16.70;99.90;;;;;;5017709;28;20041;-65
2022/08/01 03:47:41;;;;;;;15.38;4.40;;;16.70;99.90;;;;;;5034474;28;20045;-68
2022/08/01 03:50:14;;;;;;;14.55;4.05;;;16.70;99.90;;;;;;5052138;28;20052;-66
2022/08/01 03:52:43;;;;;;;12.75;3.90;;;16.60;99.90;;;;;;5060360;28;20063;-67
2022/08/01 03:55:11;;;;;;;12.70;4.07;;;16.70;99.90;;;;;;5070415;28;20036;-65
2022/08/01 03:57:40;;;;;;;14.93;4.55;;;16.70;99.90;;;;;;5070544;28;20159;-65
2022/08/01 04:00:08;;;;;;;10.70;3.55;;;16.60;99.90;;;;;;5052221;28;20044;-65
2022/08/01 04:02:35;;;;;;;16.77;4.10;;;16.50;99.90;;;;;;5071923;28;20087;-65
2022/08/01 04:05:01;;;;;;;16.52;4.30;;;16.60;99.90;;;;;;5026268;28;20056;-66
2022/08/01 04:07:30;;;;;;;16.42;4.35;;;16.50;99.90;;;;;;5055320;28;20123;-65
2022/08/01 04:09:56;;;;;;;15.10;3.58;;;16.60;99.90;;;;;;5043178;28;20103;-66
2022/08/01 04:12:22;;;;;;;11.60;3.83;;;16.60;99.90;;;;;;5060702;28;20041;-64
2022/08/01 04:14:48;;;;;;;16.20;4.32;;;16.50;99.90;;;;;;5033517;28;20132;-67
2022/08/01 04:17:15;;;;;;;13.57;3.90;;;16.50;99.90;;;;;;5060997;28;20383;-64
2022/08/01 04:19:42;;;;;;;15.95;4.05;;;16.50;99.90;;;;;;5051223;28;20044;-67
2022/08/01 04:22:10;;;;;;;16.77;4.60;;;16.50;99.90;;;;;;5034043;28;20080;-66
2022/08/01 04:24:36;;;;;;;13.98;3.28;;;16.50;99.90;;;;;;5056073;28;20128;-66
2022/08/01 04:27:07;;;;;;;14.05;3.30;;;16.50;99.90;;;;;;5051676;28;20075;-65
2022/08/01 04:29:34;;;;;;;16.05;3.40;;;16.50;99.90;;;;;;5017382;28;20048;-66
2022/08/01 04:32:01;;;;;;;13.13;3.45;;;16.40;99.90;;;;;;5033401;28;20063;-65
2022/08/01 04:34:30;;;;;;;15.60;3.60;;;16.50;99.90;;;;;;5049299;28;20530;-64
2022/08/01 04:36:57;;;;;;;22.85;3.92;;;16.50;99.90;;;;;;5051608;28;20041;-65
2022/08/01 04:39:30;;;;;;;16.60;3.83;;;16.40;99.90;;;;;;5065818;28;20479;-66
2022/08/01 04:41:58;;;;;;;16.15;4.00;;;16.40;99.90;;;;;;5051616;28;20098;-65
2022/08/01 04:44:28;;;;;;;13.77;3.92;;;16.40;99.90;;;;;;5051744;28;20053;-65
2022/08/01 04:46:59;;;;;;;17.13;4.47;;;16.40;99.90;;;;;;5062920;28;20422;-64
2022/08/01 04:49:25;;;;;;;17.42;3.40;;;16.30;99.90;;;;;;5051334;28;20037;-65
2022/08/01 04:51:59;;;;;;;18.48;3.90;;;16.40;99.90;;;;;;5055263;28;20045;-66
2022/08/01 04:54:26;;;;;;;14.65;4.20;;;16.40;99.90;;;;;;5069688;28;20056;-63
2022/08/01 04:56:55;;;;;;;22.23;4.22;;;16.40;99.90;;;;;;5044888;28;20547;-63
2022/08/01 04:59:39;;;;;;;17.13;3.88;;;16.40;99.90;;;;;;5056818;28;20040;-66
2022/08/01 05:02:11;;;;;;;19.13;4.72;;;16.40;99.90;;;;;;5074974;28;20052;-65
2022/08/01 05:04:41;;;;;;;15.32;3.20;;;16.40;99.90;;;;;;5071119;28;20048;-64
2022/08/01 05:07:07;;;;;;;18.92;3.70;;;16.40;99.90;;;;;;5054728;28;20136;-65
2022/08/01 05:09:35;;;;;;;20.65;4.22;;;16.40;99.90;;;;;;5059784;28;20479;-66
2022/08/01 05:12:03;;;;;;;19.13;4.50;;;16.40;99.90;;;;;;5037020;28;20051;-66
2022/08/01 05:14:31;;;;;;;22.05;3.92;;;16.40;99.90;;;;;;5036813;28;20072;-64
2022/08/01 05:17:03;;;;;;;23.48;4.45;;;16.40;99.90;;;;;;5068681;28;20079;-64
2022/08/01 05:19:39;;;;;;;21.50;5.10;;;16.90;99.90;;;;;;5074510;28;20043;-65
2022/08/01 05:22:09;;;;;;;27.65;4.65;;;16.30;99.90;;;;;;5074611;28;20041;-66
2022/08/01 05:24:37;;;;;;;23.55;5.00;;;16.40;99.90;;;;;;5072799;28;20033;-66
2022/08/01 05:27:03;;;;;;;23.05;4.53;;;16.40;99.90;;;;;;5074306;28;20126;-65
2022/08/01 05:29:29;;;;;;;23.42;4.25;;;16.30;99.90;;;;;;5074613;28;20052;-65
2022/08/01 05:31:56;;;;;;;24.50;3.92;;;16.30;99.90;;;;;;5072746;28;20052;-65
2022/08/01 05:34:22;;;;;;;22.17;4.32;;;16.40;99.90;;;;;;5054607;28;20044;-66
2022/08/01 05:36:47;;;;;;;25.67;4.82;;;16.40;99.90;;;;;;5036308;28;20041;-66
2022/08/01 05:39:13;;;;;;;33.53;5.03;;;16.40;99.90;;;;;;5036498;28;20041;-66
2022/08/01 05:41:40;;;;;;;22.42;4.55;;;16.30;99.90;;;;;;5036248;28;20045;-66
2022/08/01 05:44:08;;;;;;;21.52;4.50;;;16.40;99.90;;;;;;5036268;28;20045;-66
2022/08/01 05:46:35;;;;;;;20.60;4.78;;;16.40;99.90;;;;;;5036306;28;20045;-64
2022/08/01 05:49:02;;;;;;;17.42;3.55;;;16.40;99.90;;;;;;5070779;28;20048;-66
2022/08/01 05:51:28;;;;;;;18.77;3.80;;;16.40;99.90;;;;;;5068530;28;20117;-65
2022/08/01 05:53:54;;;;;;;25.13;4.15;;;16.40;99.90;;;;;;5056331;28;20597;-66
2022/08/01 05:56:20;;;;;;;22.67;4.15;;;16.40;99.90;;;;;;5074115;28;20086;-65
2022/08/01 05:58:46;;;;;;;20.63;4.70;;;16.40;99.90;;;;;;5073793;28;20048;-65
2022/08/01 06:01:12;;;;;;;26.55;5.40;;;16.40;99.90;;;;;;5073153;28;20040;-66
2022/08/01 06:03:38;;;;;;;18.77;3.78;;;16.40;99.90;;;;;;5074116;28;20036;-65
2022/08/01 06:06:04;;;;;;;23.92;4.07;;;16.40;99.90;;;;;;5063485;28;20044;-67
2022/08/01 06:08:30;;;;;;;18.58;3.80;;;16.40;99.90;;;;;;5052934;28;20055;-65
2022/08/01 06:10:56;;;;;;;22.25;4.20;;;16.40;99.90;;;;;;5053935;28;20441;-65
2022/08/01 06:13:22;;;;;;;23.08;4.15;;;16.30;99.90;;;;;;5055548;28;20056;-66
2022/08/01 06:15:48;;;;;;;21.20;3.75;;;16.30;99.90;;;;;;5055229;28;20124;-65
2022/08/01 06:18:17;;;;;;;29.00;4.07;;;16.30;99.90;;;;;;5038702;28;20051;-66
2022/08/01 06:20:42;;;;;;;19.77;3.75;;;16.30;99.90;;;;;;5073858;28;20055;-67
2022/08/01 06:23:08;;;;;;;27.02;5.18;;;16.30;99.90;;;;;;5058215;28;20406;-66
2022/08/01 06:25:34;;;;;;;19.70;3.92;;;16.30;99.90;;;;;;5065231;28;20537;-64
2022/08/01 06:28:00;;;;;;;28.65;4.25;;;16.30;99.90;;;;;;5055161;28;20078;-66
2022/08/01 06:30:26;;;;;;;22.58;4.20;;;16.30;99.90;;;;;;5055365;28;20094;-66
2022/08/01 06:32:58;;;;;;;16.40;4.30;;;16.30;99.90;;;;;;5068427;28;20056;-65
2022/08/01 06:35:24;;;;;;;23.35;3.78;;;16.30;99.90;;;;;;5073267;28;20117;-65
2022/08/01 06:37:49;;;;;;;19.73;4.22;;;16.30;99.90;;;;;;5073237;28;20474;-68
2022/08/01 06:40:18;;;;;;;24.25;4.75;;;16.30;99.90;;;;;;5071747;28;20037;-66
2022/08/01 06:42:45;;;;;;;16.30;3.50;;;16.40;99.90;;;;;;5021512;28;20457;-66
2022/08/01 06:45:13;;;;;;;15.40;3.23;;;16.40;99.90;;;;;;5035002;28;20551;-66
2022/08/01 06:47:40;;;;;;;16.30;3.20;;;16.40;99.90;;;;;;5057175;28;20060;-66
2022/08/01 06:50:08;;;;;;;21.25;3.63;;;16.40;99.90;;;;;;5053028;28;20403;-65
2022/08/01 06:52:34;;;;;;;20.52;3.60;;;16.50;99.90;;;;;;5053108;28;20407;-66
2022/08/01 06:55:00;;;;;;;29.10;4.55;;;16.50;99.90;;;;;;5038292;28;20063;-66
2022/08/01 06:57:26;;;;;;;20.95;4.18;;;16.50;99.90;;;;;;5052839;28;20072;-65
2022/08/01 06:59:52;;;;;;;20.15;4.90;;;16.60;99.90;;;;;;5054898;28;20191;-65
2022/08/01 07:02:18;;;;;;;19.52;3.45;;;16.60;99.90;;;;;;5058606;28;20041;-65
2022/08/01 07:04:44;;;;;;;16.58;3.55;;;16.60;99.90;;;;;;5053022;28;20037;-68
2022/08/01 07:07:09;;;;;;;15.35;3.50;;;16.70;99.90;;;;;;5052686;28;20129;-67
2022/08/01 07:09:35;;;;;;;19.15;3.45;;;16.70;99.90;;;;;;5053178;28;20037;-66
2022/08/01 07:12:01;;;;;;;18.42;3.92;;;16.70;99.90;;;;;;5069629;28;20478;-65
2022/08/01 07:14:26;;;;;;;14.52;3.60;;;16.70;99.90;;;;;;5069289;28;20040;-67
2022/08/01 07:16:55;;;;;;;22.40;3.40;;;16.80;99.90;;;;;;5050458;28;20049;-66
2022/08/01 07:19:20;;;;;;;13.77;3.45;;;16.80;99.90;;;;;;5052570;28;20033;-66
2022/08/01 07:21:46;;;;;;;17.75;2.92;;;16.80;99.90;;;;;;5052670;28;20041;-66
2022/08/01 07:24:14;;;;;;;17.40;3.72;;;16.90;99.90;;;;;;5052221;28;20033;-67
2022/08/01 07:26:46;;;;;;;18.08;3.45;;;17.00;99.90;;;;;;5056582;28;20560;-66
2022/08/01 07:29:11;;;;;;;14.25;3.30;;;17.10;99.90;;;;;;5065811;28;20049;-66
2022/08/01 07:31:37;;;;;;;16.25;3.78;;;17.20;99.90;;;;;;5068806;28;20057;-67
2022/08/01 07:34:03;;;;;;;19.08;3.25;;;17.30;99.90;;;;;;5072197;28;20119;-67
2022/08/01 07:36:28;;;;;;;15.00;3.33;;;17.40;99.90;;;;;;5062654;28;20037;-66
2022/08/01 07:38:55;;;;;;;22.98;4.13;;;17.40;99.90;;;;;;5053424;28;20075;-65
2022/08/01 07:41:20;;;;;;;17.30;3.70;;;17.50;99.90;;;;;;5059082;28;20036;-65
2022/08/01 07:43:48;;;;;;;21.55;3.42;;;17.60;99.90;;;;;;5051888;28;20062;-66
2022/08/01 07:46:17;;;;;;;17.80;3.17;;;17.60;99.90;;;;;;5034474;28;20044;-65
2022/08/01 07:48:44;;;;;;;23.80;3.35;;;17.70;99.90;;;;;;5066323;28;20135;-65
2022/08/01 07:51:10;;;;;;;11.60;2.67;;;17.70;99.90;;;;;;5054150;28;20090;-66
2022/08/01 07:53:36;;;;;;;15.10;2.90;;;17.80;99.90;;;;;;5072262;28;20079;-65
2022/08/01 07:56:04;;;;;;;18.58;4.43;;;17.80;99.90;;;;;;5070057;28;20041;-66
2022/08/01 07:58:30;;;;;;;;;;;17.90;99.90;;;;;;5065736;28;20044;-66
2022/08/01 08:00:58;;;;;;;12.23;2.90;;;17.80;99.90;;;;;;5051157;28;19920;-66
2022/08/01 08:03:24;;;;;;;10.07;2.72;;;17.90;99.90;;;;;;5036057;28;20045;-66
2022/08/01 08:05:50;;;;;;;12.45;2.92;;;18.00;99.90;;;;;;5034156;28;20052;-66
2022/08/01 08:08:17;;;;;;;17.00;3.33;;;18.00;99.90;;;;;;5034049;28;20128;-65
2022/08/01 08:10:44;;;;;;;16.52;2.83;;;17.90;99.90;;;;;;5056177;28;20055;-67
2022/08/01 08:13:09;;;;;;;13.82;2.92;;;17.90;99.90;;;;;;5071607;28;20053;-66
2022/08/01 08:15:35;;;;;;;10.80;2.70;;;17.90;99.90;;;;;;5068903;28;20121;-64
2022/08/01 08:18:03;;;;;;;17.08;2.90;;;18.00;99.90;;;;;;5033789;28;20098;-66
2022/08/01 08:20:29;;;;;;;14.52;2.45;;;18.20;99.90;;;;;;5033745;28;20102;-66
2022/08/01 08:22:55;;;;;;;12.82;2.20;;;18.30;99.90;;;;;;5068399;28;20036;-65
2022/08/01 08:25:24;;;;;;;11.50;2.78;;;18.40;99.90;;;;;;5054933;28;20558;-65
2022/08/01 08:27:49;;;;;;;13.52;2.90;;;18.30;99.90;;;;;;5057002;28;20502;-66
2022/08/01 08:30:15;;;;;;;14.85;2.25;;;18.40;99.90;;;;;;5058997;28;20045;-69
2022/08/01 08:32:41;;;;;;;12.40;2.67;;;18.40;99.90;;;;;;5017844;28;20045;-66
2022/08/01 08:35:10;;;;;;;16.08;2.90;;;18.50;99.90;;;;;;5035427;28;20132;-66
2022/08/01 08:37:42;;;;;;;16.40;3.00;;;18.60;99.90;;;;;;5035967;28;20088;-64
2022/08/01 08:40:09;;;;;;;10.68;2.60;;;18.60;99.90;;;;;;5002187;28;20096;-67
2022/08/01 08:42:34;;;;;;;13.88;2.10;;;18.70;99.90;;;;;;5028077;28;20141;-64
2022/08/01 08:45:00;;;;;;;12.95;3.28;;;18.70;99.90;;;;;;5035342;28;20124;-65
2022/08/01 08:47:29;;;;;;;16.92;2.90;;;18.60;99.90;;;;;;5053976;28;20067;-64
2022/08/01 08:49:55;;;;;;;18.70;2.55;;;18.50;99.90;;;;;;5050828;28;20049;-68
2022/08/01 08:52:25;;;;;;;12.63;2.42;;;18.70;99.90;;;;;;5034857;28;20056;-65
2022/08/01 08:54:51;;;;;;;12.18;2.72;;;18.70;99.90;;;;;;5035160;28;20045;-65
2022/08/01 08:57:20;;;;;;;7.38;2.00;;;18.70;99.90;;;;;;5039845;28;20087;-66
2022/08/01 08:59:46;;;;;;;10.65;2.35;;;18.70;99.90;;;;;;5035210;28;20037;-66
2022/08/01 09:02:12;;;;;;;10.77;1.92;;;18.80;99.90;;;;;;5035111;28;20483;-65
2022/08/01 09:04:39;;;;;;;16.73;2.80;;;18.80;99.90;;;;;;5035155;28;20103;-64
2022/08/01 09:07:08;;;;;;;7.45;1.95;;;18.80;99.90;;;;;;5033937;28;20128;-64
2022/08/01 09:09:34;;;;;;;12.45;2.47;;;18.80;99.90;;;;;;5035082;28;20037;-65
2022/08/01 09:12:00;;;;;;;16.45;2.60;;;18.80;99.90;;;;;;5041086;28;20526;-64
2022/08/01 09:14:29;;;;;;;13.10;2.58;;;18.80;99.90;;;;;;5054788;28;20045;-65
2022/08/01 09:17:03;;;;;;;12.30;2.60;;;18.70;99.90;;;;;;5037403;28;20048;-65
2022/08/01 09:19:39;;;;;;;11.90;2.50;;;18.80;99.90;;;;;;5037249;28;20056;-65
2022/08/01 09:22:13;;;;;;;16.70;3.13;;;18.80;99.90;;;;;;5035309;28;20092;-65
2022/08/01 09:24:40;;;;;;;11.85;2.03;;;18.90;99.90;;;;;;5034728;28;20045;-66
2022/08/01 09:27:18;;;;;;;8.70;1.97;;;19.10;99.90;;;;;;5035064;28;20380;-65
2022/08/01 09:29:44;;;;;;;10.10;2.28;;;19.20;99.90;;;;;;5033316;28;20045;-65
2022/08/01 09:32:10;;;;;;;9.07;2.05;;;19.20;99.90;;;;;;5045016;28;20131;-66
2022/08/01 09:34:39;;;;;;;10.10;2.13;;;19.10;99.90;;;;;;5055017;28;20056;-66
2022/08/01 09:37:17;;;;;;;13.50;2.50;;;19.20;99.90;;;;;;5053973;28;20051;-64
2022/08/01 09:39:45;;;;;;;13.03;2.63;;;19.20;99.90;;;;;;5054894;28;20415;-65
2022/08/01 09:42:24;;;;;;;;;;;19.20;99.90;;;;;;5059003;28;20391;-65
2022/08/01 09:44:50;;;;;;;;;;;19.00;99.90;;;;;;5073366;28;20324;-65
2022/08/01 09:47:18;;;;;;;10.13;1.90;;;18.80;99.90;;;;;;5039470;28;19921;-65
2022/08/01 09:49:45;;;;;;;13.98;2.50;;;18.70;99.90;;;;;;5055590;28;20044;-67
2022/08/01 09:52:22;;;;;;;9.52;2.40;;;18.70;99.90;;;;;;5036655;28;20565;-67
2022/08/01 09:55:00;;;;;;;20.02;2.72;;;18.90;99.90;;;;;;5054355;28;20056;-65
2022/08/01 09:57:27;;;;;;;11.77;2.30;;;19.10;99.90;;;;;;5054352;28;20472;-66
2022/08/01 09:59:55;;;;;;;11.60;2.97;;;19.30;99.90;;;;;;5054068;28;20045;-65
2022/08/01 10:02:27;;;;;;;;;;;19.40;99.90;;;;;;5054155;28;20048;-65
2022/08/01 10:04:53;;;;;;;7.30;1.75;;;19.40;99.90;;;;;;5053123;28;20004;-65
2022/08/01 10:07:19;;;;;;;9.30;2.00;;;19.40;99.90;;;;;;5060534;28;20040;-66
2022/08/01 10:09:46;;;;;;;13.20;2.10;;;19.50;99.90;;;;;;5073403;28;20079;-66
2022/08/01 10:12:16;;;;;;;10.60;1.80;;;19.70;99.90;;;;;;5066456;28;20478;-63
2022/08/01 10:14:47;;;;;;;12.55;2.38;;;19.70;99.90;;;;;;5070583;28;20089;-65
2022/08/01 10:17:15;;;;;;;6.70;1.80;;;19.70;99.90;;;;;;5073458;28;20376;-66
2022/08/01 10:19:43;;;;;;;12.77;1.70;;;19.60;99.90;;;;;;5073401;28;20051;-65
2022/08/01 10:22:18;;;;;;;11.75;2.42;;;19.70;99.90;;;;;;5072907;28;20410;-66
2022/08/01 10:24:47;;;;;;;12.73;2.20;;;19.90;99.90;;;;;;5072921;28;20080;-65
2022/08/01 10:27:15;;;;;;;8.50;2.10;;;20.00;99.90;;;;;;5036357;28;20045;-66
2022/08/01 10:29:56;;;;;;;7.03;1.90;;;20.20;99.40;;;;;;5071966;28;20059;-66
2022/08/01 10:32:23;;;;;;;8.77;2.20;;;20.20;99.20;;;;;;5055286;28;20144;-65
2022/08/01 10:34:49;;;;;;;10.87;2.30;;;20.20;99.30;;;;;;5055630;28;20135;-68
2022/08/01 10:37:17;;;;;;;7.43;2.30;;;20.10;98.70;;;;;;5072451;28;20070;-65
2022/08/01 10:39:43;;;;;;;9.45;2.08;;;19.90;98.70;;;;;;5073255;28;20040;-65
2022/08/01 10:42:11;;;;;;;11.05;2.22;;;19.90;99.80;;;;;;5055447;28;20444;-65
2022/08/01 10:44:38;;;;;;;10.10;1.77;;;19.90;99.40;;;;;;5056312;28;20033;-64
2022/08/01 10:47:11;;;;;;;9.10;2.28;;;20.10;98.10;;;;;;5035493;28;20128;-65
2022/08/01 10:50:19;;;;;;;9.73;1.80;;;20.20;99.70;;;;;;5052845;28;20120;-65
2022/08/01 10:53:06;;;;;;;9.23;1.98;;;20.50;98.20;;;;;;5060756;28;20036;-66
2022/08/01 10:55:51;;;;;;;11.07;2.25;;;20.50;96.70;;;;;;5052902;28;20045;-66
2022/08/01 10:58:28;;;;;;;9.30;2.13;;;20.30;96.40;;;;;;5038439;28;20556;-64
2022/08/01 11:01:18;;;;;;;14.90;2.03;;;20.30;97.70;;;;;;5055201;28;20059;-66
2022/08/01 11:04:00;;;;;;;12.30;2.22;;;20.40;98.10;;;;;;5052580;28;20307;-65
2022/08/01 11:06:34;;;;;;;12.25;2.33;;;20.40;98.10;;;;;;5052465;28;20495;-65
2022/08/01 11:09:15;;;;;;;13.90;2.45;;;20.40;96.90;;;;;;5053041;28;20593;-67
2022/08/01 11:12:09;;;;;;;11.75;1.85;;;20.50;97.50;;;;;;5054043;28;20041;-68
2022/08/01 11:14:57;;;;;;;8.27;1.77;;;20.60;95.60;;;;;;5063455;28;20057;-64
2022/08/01 11:17:48;;;;;;;10.02;1.92;;;20.60;96.50;;;;;;5072626;28;20049;-66
2022/08/01 11:20:17;;;;;;;10.18;2.05;;;20.70;96.30;;;;;;5057648;28;20086;-66
2022/08/01 11:23:03;;;;;;;5.68;1.80;;;20.80;96.10;;;;;;5053131;28;20056;-68
2022/08/01 11:25:45;;;;;;;9.40;1.83;;;21.00;96.40;;;;;;5052398;28;20072;-67
2022/08/01 11:28:15;;;;;;;7.80;2.08;;;21.20;94.30;;;;;;5052801;28;20059;-66
2022/08/01 11:30:43;;;;;;;10.77;1.83;;;21.30;94.50;;;;;;5052527;28;20049;-65
2022/08/01 11:33:09;;;;;;;8.63;1.70;;;21.20;94.90;;;;;;5052267;28;20114;-66
2022/08/01 11:35:36;;;;;;;6.32;1.55;;;21.10;92.80;;;;;;5052266;28;20044;-64
2022/08/01 11:38:29;;;;;;;12.15;1.60;;;20.90;93.80;;;;;;5052745;28;20063;-68
2022/08/01 11:41:20;;;;;;;6.82;1.60;;;20.60;93.10;;;;;;5053901;28;20065;-66
2022/08/01 11:43:57;;;;;;;7.82;1.48;;;20.60;93.20;;;;;;5052815;28;20044;-65
2022/08/01 11:47:01;;;;;;;10.48;2.47;;;20.50;93.90;;;;;;5052476;28;20048;-67
2022/08/01 11:49:33;;;;;;;4.28;1.70;;;20.50;93.20;;;;;;5034681;28;20053;-66
2022/08/01 11:52:27;;;;;;;6.93;1.90;;;20.40;92.90;;;;;;5027496;28;20048;-66
2022/08/01 11:55:11;;;;;;;6.13;1.90;;;20.40;92.90;;;;;;5024391;28;20503;-66
2022/08/01 11:57:37;;;;;;;8.27;2.08;;;20.60;91.70;;;;;;5068676;28;20476;-68
2022/08/01 12:00:11;;;;;;;8.98;2.10;;;20.60;92.70;;;;;;5074849;28;20040;-65
2022/08/01 12:02:37;;;;;;;6.00;1.67;;;20.80;93.60;;;;;;5076377;28;20048;-65
2022/08/01 12:05:05;;;;;;;8.50;1.70;;;21.00;92.10;;;;;;5057176;28;20045;-65
2022/08/01 12:07:31;;;;;;;;;;;21.00;91.70;;;;;;5056811;28;20395;-66
2022/08/01 12:10:09;;;;;;;5.60;1.52;;;20.90;91.40;;;;;;5056140;28;19964;-65
2022/08/01 12:12:37;;;;;;;11.00;1.98;;;20.90;91.90;;;;;;5053047;28;20041;-65
2022/08/01 12:15:08;;;;;;;5.15;1.63;;;21.00;92.00;;;;;;5039498;28;20376;-65
2022/08/01 12:17:35;;;;;;;7.55;1.83;;;21.20;93.40;;;;;;5038181;28;20045;-67
2022/08/01 12:20:04;;;;;;;9.82;1.90;;;21.40;93.00;;;;;;5038389;28;20087;-67
2022/08/01 12:22:30;;;;;;;12.48;2.10;;;21.60;91.10;;;;;;5054761;28;20044;-65
2022/08/01 12:24:56;;;;;;;5.53;1.63;;;21.80;92.80;;;;;;5059893;28;20664;-66
2022/08/01 12:27:30;;;;;;;8.32;1.98;;;21.90;92.80;;;;;;5038548;28;20048;-66
2022/08/01 12:29:59;;;;;;;9.27;1.88;;;22.10;88.30;;;;;;5057887;28;20536;-67
2022/08/01 12:32:31;;;;;;;13.60;2.42;;;22.10;87.60;;;;;;5075454;28;20059;-66
2022/08/01 12:35:12;;;;;;;7.25;1.55;;;22.00;87.50;;;;;;5056514;28;20083;-65
2022/08/01 12:37:46;;;;;;;10.77;1.70;;;21.80;90.00;;;;;;5037447;28;20415;-65
2022/08/01 12:40:21;;;;;;;7.60;2.08;;;21.90;90.60;;;;;;5059614;28;20124;-67
2022/08/01 12:42:49;;;;;;;10.18;2.38;;;22.10;89.40;;;;;;5075169;28;20047;-66
2022/08/01 12:45:26;;;;;;;6.30;1.92;;;22.10;90.80;;;;;;5067629;28;20511;-66
2022/08/01 12:47:53;;;;;;;11.05;2.20;;;22.10;91.30;;;;;;5062362;28;20044;-67
2022/08/01 12:50:22;;;;;;;9.90;1.83;;;22.10;91.50;;;;;;5040824;28;20048;-67
2022/08/01 12:52:50;;;;;;;7.05;1.90;;;22.20;90.70;;;;;;5044348;28;20048;-67
2022/08/01 12:55:21;;;;;;;8.77;2.03;;;22.30;90.60;;;;;;5056070;28;20112;-66